sensor_id;sensor_type;location;lat;lon;timestamp;temperature;humidity
19365;DHT22;9818;48.382;10.850;2024-02-23T00:01:04;19.80;67.30
19365;DHT22;9818;48.382;10.850;2024-02-23T00:03:33;19.70;49.30
19365;DHT22;9818;48.382;10.850;2024-02-23T00:06:03;19.70;41.60
19365;DHT22;9818;48.382;10.850;2024-02-23T00:08:32;19.70;23.20
19365;DHT22;9818;48.382;10.850;2024-02-23T00:11:01;19.70;26.20
19365;DHT22;9818;48.382;10.850;2024-02-23T00:13:29;19.70;20.50
19365;DHT22;9818;48.382;10.850;2024-02-23T00:16:01;19.70;16.50
19365;DHT22;9818;48.382;10.850;2024-02-23T00:18:30;19.60;14.60
19365;DHT22;9818;48.382;10.850;2024-02-23T00:20:58;19.60;8.30
19365;DHT22;9818;48.382;10.850;2024-02-23T00:23:27;19.60;2.70
19365;DHT22;9818;48.382;10.850;2024-02-23T00:25:56;19.60;1.00
19365;DHT22;9818;48.382;10.850;2024-02-23T00:28:25;19.60;1.00
19365;DHT22;9818;48.382;10.850;2024-02-23T00:30:54;19.60;1.00
19365;DHT22;9818;48.382;10.850;2024-02-23T00:33:25;19.60;1.00
19365;DHT22;9818;48.382;10.850;2024-02-23T00:35:54;19.60;1.00
19365;DHT22;9818;48.382;10.850;2024-02-23T00:38:23;19.60;1.00
19365;DHT22;9818;48.382;10.850;2024-02-23T00:40:51;19.60;1.00
19365;DHT22;9818;48.382;10.850;2024-02-23T00:43:20;19.60;1.00
19365;DHT22;9818;48.382;10.850;2024-02-23T00:45:49;19.50;1.00
19365;DHT22;9818;48.382;10.850;2024-02-23T00:48:18;19.60;1.00
19365;DHT22;9818;48.382;10.850;2024-02-23T00:50:49;19.50;5.10
19365;DHT22;9818;48.382;10.850;2024-02-23T00:53:18;19.50;1.00
19365;DHT22;9818;48.382;10.850;2024-02-23T00:55:47;19.50;10.70
19365;DHT22;9818;48.382;10.850;2024-02-23T00:58:16;19.50;14.80
19365;DHT22;9818;48.382;10.850;2024-02-23T01:00:45;19.50;20.80
19365;DHT22;9818;48.382;10.850;2024-02-23T01:03:14;19.50;23.90
19365;DHT22;9818;48.382;10.850;2024-02-23T01:05:42;19.50;4.10
19365;DHT22;9818;48.382;10.850;2024-02-23T01:08:14;19.50;18.40
19365;DHT22;9818;48.382;10.850;2024-02-23T01:10:43;19.50;29.30
19365;DHT22;9818;48.382;10.850;2024-02-23T01:13:11;19.50;19.20
19365;DHT22;9818;48.382;10.850;2024-02-23T01:15:41;19.50;17.00
19365;DHT22;9818;48.382;10.850;2024-02-23T01:18:10;19.50;34.40
19365;DHT22;9818;48.382;10.850;2024-02-23T01:20:39;19.40;24.90
19365;DHT22;9818;48.382;10.850;2024-02-23T01:23:07;19.40;18.60
19365;DHT22;9818;48.382;10.850;2024-02-23T01:25:39;19.40;14.50
19365;DHT22;9818;48.382;10.850;2024-02-23T01:28:08;19.40;1.00
19365;DHT22;9818;48.382;10.850;2024-02-23T01:30:36;19.40;12.00
19365;DHT22;9818;48.382;10.850;2024-02-23T01:33:05;19.40;11.10
19365;DHT22;9818;48.382;10.850;2024-02-23T01:35:34;19.40;1.00
19365;DHT22;9818;48.382;10.850;2024-02-23T01:38:03;19.40;9.30
19365;DHT22;9818;48.382;10.850;2024-02-23T01:40:32;19.40;1.00
19365;DHT22;9818;48.382;10.850;2024-02-23T01:43:04;19.40;2.10
19365;DHT22;9818;48.382;10.850;2024-02-23T01:45:33;19.40;1.80
19365;DHT22;9818;48.382;10.850;2024-02-23T01:48:03;19.40;1.00
19365;DHT22;9818;48.382;10.850;2024-02-23T01:50:32;19.40;1.00
19365;DHT22;9818;48.382;10.850;2024-02-23T01:53:02;19.40;1.00
19365;DHT22;9818;48.382;10.850;2024-02-23T01:55:31;19.40;1.00
19365;DHT22;9818;48.382;10.850;2024-02-23T01:58:03;19.40;1.00
19365;DHT22;9818;48.382;10.850;2024-02-23T02:00:33;19.40;1.00
19365;DHT22;9818;48.382;10.850;2024-02-23T02:03:03;19.40;1.00
19365;DHT22;9818;48.382;10.850;2024-02-23T02:05:31;19.40;3.00
19365;DHT22;9818;48.382;10.850;2024-02-23T02:08:00;19.40;9.50
19365;DHT22;9818;48.382;10.850;2024-02-23T02:10:29;19.40;18.30
19365;DHT22;9818;48.382;10.850;2024-02-23T02:13:05;19.40;11.60
19365;DHT22;9818;48.382;10.850;2024-02-23T02:15:34;19.30;15.10
19365;DHT22;9818;48.382;10.850;2024-02-23T02:18:04;19.30;10.80
19365;DHT22;9818;48.382;10.850;2024-02-23T02:20:33;19.30;21.40
19365;DHT22;9818;48.382;10.850;2024-02-23T02:23:04;19.30;15.00
19365;DHT22;9818;48.382;10.850;2024-02-23T02:25:33;19.30;21.40
19365;DHT22;9818;48.382;10.850;2024-02-23T02:28:06;19.30;5.00
19365;DHT22;9818;48.382;10.850;2024-02-23T02:30:34;19.30;19.80
19365;DHT22;9818;48.382;10.850;2024-02-23T02:33:03;19.30;11.20
19365;DHT22;9818;48.382;10.850;2024-02-23T02:35:32;19.30;1.00
19365;DHT22;9818;48.382;10.850;2024-02-23T02:38:01;19.30;1.00
19365;DHT22;9818;48.382;10.850;2024-02-23T02:40:30;19.30;1.00
19365;DHT22;9818;48.382;10.850;2024-02-23T02:42:59;19.30;1.00
19365;DHT22;9818;48.382;10.850;2024-02-23T02:45:31;19.30;1.00
19365;DHT22;9818;48.382;10.850;2024-02-23T02:48:00;19.30;1.00
19365;DHT22;9818;48.382;10.850;2024-02-23T02:50:29;19.30;1.00
19365;DHT22;9818;48.382;10.850;2024-02-23T02:52:58;19.30;1.00
19365;DHT22;9818;48.382;10.850;2024-02-23T02:55:27;19.30;1.00
19365;DHT22;9818;48.382;10.850;2024-02-23T02:57:56;19.30;1.00
19365;DHT22;9818;48.382;10.850;2024-02-23T03:00:25;19.20;1.00
19365;DHT22;9818;48.382;10.850;2024-02-23T03:02:56;19.20;1.00
19365;DHT22;9818;48.382;10.850;2024-02-23T03:05:25;19.20;1.00
19365;DHT22;9818;48.382;10.850;2024-02-23T03:07:54;19.20;1.00
19365;DHT22;9818;48.382;10.850;2024-02-23T03:10:22;19.30;1.00
19365;DHT22;9818;48.382;10.850;2024-02-23T03:12:51;19.20;1.00
19365;DHT22;9818;48.382;10.850;2024-02-23T03:15:20;19.20;1.00
19365;DHT22;9818;48.382;10.850;2024-02-23T03:17:49;19.20;1.00
19365;DHT22;9818;48.382;10.850;2024-02-23T03:20:20;19.20;1.00
19365;DHT22;9818;48.382;10.850;2024-02-23T03:22:49;19.20;1.00
19365;DHT22;9818;48.382;10.850;2024-02-23T03:25:18;19.30;1.00
19365;DHT22;9818;48.382;10.850;2024-02-23T03:27:47;19.30;1.00
19365;DHT22;9818;48.382;10.850;2024-02-23T03:30:15;19.20;1.00
19365;DHT22;9818;48.382;10.850;2024-02-23T03:32:44;19.20;1.00
19365;DHT22;9818;48.382;10.850;2024-02-23T03:35:13;19.20;1.00
19365;DHT22;9818;48.382;10.850;2024-02-23T03:37:44;19.20;1.00
19365;DHT22;9818;48.382;10.850;2024-02-23T03:40:13;19.20;1.00
19365;DHT22;9818;48.382;10.850;2024-02-23T03:42:43;19.20;1.00
19365;DHT22;9818;48.382;10.850;2024-02-23T03:45:12;19.20;1.00
19365;DHT22;9818;48.382;10.850;2024-02-23T03:47:41;19.20;1.00
19365;DHT22;9818;48.382;10.850;2024-02-23T03:50:10;19.20;1.00
19365;DHT22;9818;48.382;10.850;2024-02-23T03:52:39;19.20;1.00
19365;DHT22;9818;48.382;10.850;2024-02-23T03:55:10;19.20;1.00
19365;DHT22;9818;48.382;10.850;2024-02-23T03:57:39;19.20;1.00
19365;DHT22;9818;48.382;10.850;2024-02-23T04:00:09;19.20;1.00
19365;DHT22;9818;48.382;10.850;2024-02-23T04:02:39;19.20;1.00
19365;DHT22;9818;48.382;10.850;2024-02-23T04:05:08;19.10;1.00
19365;DHT22;9818;48.382;10.850;2024-02-23T04:07:37;19.20;1.00
19365;DHT22;9818;48.382;10.850;2024-02-23T04:10:07;19.10;1.00
19365;DHT22;9818;48.382;10.850;2024-02-23T04:12:38;19.20;1.00
19365;DHT22;9818;48.382;10.850;2024-02-23T04:15:08;19.10;1.00
19365;DHT22;9818;48.382;10.850;2024-02-23T04:17:37;19.10;1.00
19365;DHT22;9818;48.382;10.850;2024-02-23T04:20:07;19.10;1.00
19365;DHT22;9818;48.382;10.850;2024-02-23T04:22:36;19.20;1.00
19365;DHT22;9818;48.382;10.850;2024-02-23T04:25:05;19.10;1.00
19365;DHT22;9818;48.382;10.850;2024-02-23T04:27:34;19.10;1.00
19365;DHT22;9818;48.382;10.850;2024-02-23T04:30:06;19.10;1.00
19365;DHT22;9818;48.382;10.850;2024-02-23T04:32:35;19.10;1.00
19365;DHT22;9818;48.382;10.850;2024-02-23T04:35:05;19.10;1.00
19365;DHT22;9818;48.382;10.850;2024-02-23T04:37:34;19.10;1.00
19365;DHT22;9818;48.382;10.850;2024-02-23T04:40:03;19.10;1.00
19365;DHT22;9818;48.382;10.850;2024-02-23T04:42:31;19.10;1.00
19365;DHT22;9818;48.382;10.850;2024-02-23T04:45:00;19.10;1.00
19365;DHT22;9818;48.382;10.850;2024-02-23T04:47:31;19.10;1.00
19365;DHT22;9818;48.382;10.850;2024-02-23T04:50:00;19.10;1.00
19365;DHT22;9818;48.382;10.850;2024-02-23T04:52:29;19.10;1.00
19365;DHT22;9818;48.382;10.850;2024-02-23T04:54:58;19.10;1.00
19365;DHT22;9818;48.382;10.850;2024-02-23T04:57:27;19.10;1.00
19365;DHT22;9818;48.382;10.850;2024-02-23T04:59:56;19.10;1.00
19365;DHT22;9818;48.382;10.850;2024-02-23T05:02:25;19.10;1.00
19365;DHT22;9818;48.382;10.850;2024-02-23T05:05:03;19.00;1.00
19365;DHT22;9818;48.382;10.850;2024-02-23T05:07:32;19.10;1.00
19365;DHT22;9818;48.382;10.850;2024-02-23T05:10:02;19.10;1.00
19365;DHT22;9818;48.382;10.850;2024-02-23T05:12:31;19.00;1.00
19365;DHT22;9818;48.382;10.850;2024-02-23T05:14:59;19.00;1.00
19365;DHT22;9818;48.382;10.850;2024-02-23T05:17:28;19.00;1.00
19365;DHT22;9818;48.382;10.850;2024-02-23T05:19:57;19.00;1.00
19365;DHT22;9818;48.382;10.850;2024-02-23T05:22:28;19.00;1.00
19365;DHT22;9818;48.382;10.850;2024-02-23T05:24:57;19.00;1.00
19365;DHT22;9818;48.382;10.850;2024-02-23T05:27:26;19.00;1.00
19365;DHT22;9818;48.382;10.850;2024-02-23T05:29:55;19.00;1.00
19365;DHT22;9818;48.382;10.850;2024-02-23T05:32:24;19.00;1.00
19365;DHT22;9818;48.382;10.850;2024-02-23T05:34:53;19.00;1.00
19365;DHT22;9818;48.382;10.850;2024-02-23T05:37:22;19.00;1.00
19365;DHT22;9818;48.382;10.850;2024-02-23T05:39:55;19.00;1.00
19365;DHT22;9818;48.382;10.850;2024-02-23T05:42:25;19.00;1.00
19365;DHT22;9818;48.382;10.850;2024-02-23T05:44:54;19.00;1.00
19365;DHT22;9818;48.382;10.850;2024-02-23T05:47:23;19.00;1.00
19365;DHT22;9818;48.382;10.850;2024-02-23T05:49:51;19.00;1.00
19365;DHT22;9818;48.382;10.850;2024-02-23T05:52:20;19.00;1.00
19365;DHT22;9818;48.382;10.850;2024-02-23T05:54:49;19.00;1.00
19365;DHT22;9818;48.382;10.850;2024-02-23T05:57:22;19.00;1.00
19365;DHT22;9818;48.382;10.850;2024-02-23T05:59:50;19.00;1.00
19365;DHT22;9818;48.382;10.850;2024-02-23T06:02:21;19.00;1.00
19365;DHT22;9818;48.382;10.850;2024-02-23T06:04:49;19.00;1.00
19365;DHT22;9818;48.382;10.850;2024-02-23T06:07:18;19.00;1.00
19365;DHT22;9818;48.382;10.850;2024-02-23T06:09:54;19.00;1.00
19365;DHT22;9818;48.382;10.850;2024-02-23T06:12:26;19.00;1.00
19365;DHT22;9818;48.382;10.850;2024-02-23T06:14:55;19.00;1.00
19365;DHT22;9818;48.382;10.850;2024-02-23T06:17:24;19.00;1.00
19365;DHT22;9818;48.382;10.850;2024-02-23T06:19:53;18.90;1.00
19365;DHT22;9818;48.382;10.850;2024-02-23T06:22:23;19.00;1.00
19365;DHT22;9818;48.382;10.850;2024-02-23T06:24:52;18.90;1.00
19365;DHT22;9818;48.382;10.850;2024-02-23T06:27:20;19.00;1.00
19365;DHT22;9818;48.382;10.850;2024-02-23T06:29:53;18.90;1.00
19365;DHT22;9818;48.382;10.850;2024-02-23T06:32:22;18.90;1.00
19365;DHT22;9818;48.382;10.850;2024-02-23T06:34:51;19.00;1.00
19365;DHT22;9818;48.382;10.850;2024-02-23T06:37:20;18.90;1.00
19365;DHT22;9818;48.382;10.850;2024-02-23T06:39:49;18.90;1.00
19365;DHT22;9818;48.382;10.850;2024-02-23T06:42:20;18.90;1.00
19365;DHT22;9818;48.382;10.850;2024-02-23T06:44:49;18.90;1.00
19365;DHT22;9818;48.382;10.850;2024-02-23T06:47:22;18.90;1.00
19365;DHT22;9818;48.382;10.850;2024-02-23T06:49:51;18.90;1.00
19365;DHT22;9818;48.382;10.850;2024-02-23T06:52:19;18.90;1.00
19365;DHT22;9818;48.382;10.850;2024-02-23T06:54:49;18.90;1.00
19365;DHT22;9818;48.382;10.850;2024-02-23T06:57:17;18.90;1.00
19365;DHT22;9818;48.382;10.850;2024-02-23T06:59:46;18.90;1.00
19365;DHT22;9818;48.382;10.850;2024-02-23T07:02:15;18.90;1.00
19365;DHT22;9818;48.382;10.850;2024-02-23T07:04:46;18.90;1.00
19365;DHT22;9818;48.382;10.850;2024-02-23T07:07:15;18.90;1.00
19365;DHT22;9818;48.382;10.850;2024-02-23T07:09:44;18.90;1.00
19365;DHT22;9818;48.382;10.850;2024-02-23T07:12:13;18.90;1.00
19365;DHT22;9818;48.382;10.850;2024-02-23T07:14:42;18.90;1.00
19365;DHT22;9818;48.382;10.850;2024-02-23T07:17:10;18.90;1.00
19365;DHT22;9818;48.382;10.850;2024-02-23T07:19:40;18.80;1.00
19365;DHT22;9818;48.382;10.850;2024-02-23T07:22:11;18.90;1.00
19365;DHT22;9818;48.382;10.850;2024-02-23T07:24:41;18.90;1.00
19365;DHT22;9818;48.382;10.850;2024-02-23T07:27:10;18.80;1.00
19365;DHT22;9818;48.382;10.850;2024-02-23T07:29:39;18.80;1.00
19365;DHT22;9818;48.382;10.850;2024-02-23T07:32:07;18.80;1.00
19365;DHT22;9818;48.382;10.850;2024-02-23T07:34:36;18.80;1.00
19365;DHT22;9818;48.382;10.850;2024-02-23T07:37:05;18.80;1.00
19365;DHT22;9818;48.382;10.850;2024-02-23T07:39:37;18.80;1.00
19365;DHT22;9818;48.382;10.850;2024-02-23T07:42:06;18.80;1.00
19365;DHT22;9818;48.382;10.850;2024-02-23T07:44:36;18.80;1.00
19365;DHT22;9818;48.382;10.850;2024-02-23T07:47:06;18.80;1.00
19365;DHT22;9818;48.382;10.850;2024-02-23T07:49:34;18.80;1.00
19365;DHT22;9818;48.382;10.850;2024-02-23T07:52:04;18.80;1.00
19365;DHT22;9818;48.382;10.850;2024-02-23T07:54:33;18.80;1.00
19365;DHT22;9818;48.382;10.850;2024-02-23T07:57:04;18.80;1.00
19365;DHT22;9818;48.382;10.850;2024-02-23T07:59:34;18.80;1.00
19365;DHT22;9818;48.382;10.850;2024-02-23T08:02:03;18.80;1.00
19365;DHT22;9818;48.382;10.850;2024-02-23T08:04:31;18.80;1.00
19365;DHT22;9818;48.382;10.850;2024-02-23T08:07:03;18.80;1.00
19365;DHT22;9818;48.382;10.850;2024-02-23T08:09:32;18.80;1.00
19365;DHT22;9818;48.382;10.850;2024-02-23T08:12:04;18.80;1.00
19365;DHT22;9818;48.382;10.850;2024-02-23T08:14:33;18.80;1.00
19365;DHT22;9818;48.382;10.850;2024-02-23T08:17:02;18.80;1.00
19365;DHT22;9818;48.382;10.850;2024-02-23T08:19:30;18.80;1.00
19365;DHT22;9818;48.382;10.850;2024-02-23T08:21:59;18.80;1.00
19365;DHT22;9818;48.382;10.850;2024-02-23T08:24:28;18.80;1.00
19365;DHT22;9818;48.382;10.850;2024-02-23T08:26:57;18.80;1.00
19365;DHT22;9818;48.382;10.850;2024-02-23T08:29:28;18.80;1.00
19365;DHT22;9818;48.382;10.850;2024-02-23T08:31:57;18.80;1.00
19365;DHT22;9818;48.382;10.850;2024-02-23T08:34:26;18.80;1.00
19365;DHT22;9818;48.382;10.850;2024-02-23T08:36:54;18.70;1.00
19365;DHT22;9818;48.382;10.850;2024-02-23T08:39:23;18.70;1.00
19365;DHT22;9818;48.382;10.850;2024-02-23T08:41:52;18.70;1.00
19365;DHT22;9818;48.382;10.850;2024-02-23T08:44:21;18.70;1.00
19365;DHT22;9818;48.382;10.850;2024-02-23T08:46:52;18.70;1.00
19365;DHT22;9818;48.382;10.850;2024-02-23T08:49:21;18.70;1.00
19365;DHT22;9818;48.382;10.850;2024-02-23T08:51:50;18.70;1.00
19365;DHT22;9818;48.382;10.850;2024-02-23T08:54:18;18.80;1.00
19365;DHT22;9818;48.382;10.850;2024-02-23T08:56:47;18.70;1.00
19365;DHT22;9818;48.382;10.850;2024-02-23T08:59:16;18.70;1.00
19365;DHT22;9818;48.382;10.850;2024-02-23T09:01:45;18.70;1.00
19365;DHT22;9818;48.382;10.850;2024-02-23T09:04:16;18.70;1.00
19365;DHT22;9818;48.382;10.850;2024-02-23T09:06:45;18.70;1.00
19365;DHT22;9818;48.382;10.850;2024-02-23T09:09:15;18.70;1.00
19365;DHT22;9818;48.382;10.850;2024-02-23T09:11:44;18.70;1.00
19365;DHT22;9818;48.382;10.850;2024-02-23T09:14:13;18.70;1.00
19365;DHT22;9818;48.382;10.850;2024-02-23T09:16:42;18.70;1.00
19365;DHT22;9818;48.382;10.850;2024-02-23T09:19:12;18.70;1.00
19365;DHT22;9818;48.382;10.850;2024-02-23T09:21:43;18.70;1.00
19365;DHT22;9818;48.382;10.850;2024-02-23T09:24:12;18.70;1.00
19365;DHT22;9818;48.382;10.850;2024-02-23T09:26:41;18.70;1.00
19365;DHT22;9818;48.382;10.850;2024-02-23T09:29:09;18.70;1.00
19365;DHT22;9818;48.382;10.850;2024-02-23T09:31:38;18.70;1.00
19365;DHT22;9818;48.382;10.850;2024-02-23T09:34:07;18.70;1.00
19365;DHT22;9818;48.382;10.850;2024-02-23T09:36:36;18.70;1.00
19365;DHT22;9818;48.382;10.850;2024-02-23T09:39:07;18.70;1.00
19365;DHT22;9818;48.382;10.850;2024-02-23T09:41:37;18.70;1.00
19365;DHT22;9818;48.382;10.850;2024-02-23T09:44:08;18.70;1.00
19365;DHT22;9818;48.382;10.850;2024-02-23T09:46:37;18.70;1.00
19365;DHT22;9818;48.382;10.850;2024-02-23T09:49:07;18.70;1.00
19365;DHT22;9818;48.382;10.850;2024-02-23T09:51:38;18.70;1.00
19365;DHT22;9818;48.382;10.850;2024-02-23T09:54:10;18.70;1.00
19365;DHT22;9818;48.382;10.850;2024-02-23T09:56:39;18.60;1.00
19365;DHT22;9818;48.382;10.850;2024-02-23T09:59:08;18.70;1.00
19365;DHT22;9818;48.382;10.850;2024-02-23T10:01:38;18.60;1.00
19365;DHT22;9818;48.382;10.850;2024-02-23T10:04:07;18.30;1.00
19365;DHT22;9818;48.382;10.850;2024-02-23T10:06:36;16.60;1.00
19365;DHT22;9818;48.382;10.850;2024-02-23T10:09:05;15.60;1.00
19365;DHT22;9818;48.382;10.850;2024-02-23T10:11:37;14.90;1.00
19365;DHT22;9818;48.382;10.850;2024-02-23T10:14:05;14.90;1.00
19365;DHT22;9818;48.382;10.850;2024-02-23T10:16:34;15.90;99.90
19365;DHT22;9818;48.382;10.850;2024-02-23T10:19:03;16.90;99.90
19365;DHT22;9818;48.382;10.850;2024-02-23T10:21:33;17.40;99.90
19365;DHT22;9818;48.382;10.850;2024-02-23T10:24:01;17.70;99.90
19365;DHT22;9818;48.382;10.850;2024-02-23T10:26:30;17.70;99.90
19365;DHT22;9818;48.382;10.850;2024-02-23T10:29:02;17.80;99.90
19365;DHT22;9818;48.382;10.850;2024-02-23T10:31:34;17.80;99.90
19365;DHT22;9818;48.382;10.850;2024-02-23T10:34:07;17.90;99.90
19365;DHT22;9818;48.382;10.850;2024-02-23T10:36:41;18.00;99.90
19365;DHT22;9818;48.382;10.850;2024-02-23T10:39:11;18.10;1.00
19365;DHT22;9818;48.382;10.850;2024-02-23T10:41:47;18.10;1.00
19365;DHT22;9818;48.382;10.850;2024-02-23T10:44:20;18.10;1.00
19365;DHT22;9818;48.382;10.850;2024-02-23T10:46:47;18.20;1.00
19365;DHT22;9818;48.382;10.850;2024-02-23T10:49:18;18.20;1.00
19365;DHT22;9818;48.382;10.850;2024-02-23T10:51:49;18.30;1.00
19365;DHT22;9818;48.382;10.850;2024-02-23T10:54:20;18.30;1.00
19365;DHT22;9818;48.382;10.850;2024-02-23T10:56:50;18.30;1.00
19365;DHT22;9818;48.382;10.850;2024-02-23T10:59:24;18.30;1.00
19365;DHT22;9818;48.382;10.850;2024-02-23T11:01:54;18.40;1.00
19365;DHT22;9818;48.382;10.850;2024-02-23T11:04:26;18.40;1.00
19365;DHT22;9818;48.382;10.850;2024-02-23T11:06:55;18.40;1.00
19365;DHT22;9818;48.382;10.850;2024-02-23T11:09:31;18.50;1.00
19365;DHT22;9818;48.382;10.850;2024-02-23T11:12:04;18.50;1.00
19365;DHT22;9818;48.382;10.850;2024-02-23T11:14:36;18.50;1.00
19365;DHT22;9818;48.382;10.850;2024-02-23T11:17:05;18.50;1.00
19365;DHT22;9818;48.382;10.850;2024-02-23T11:19:35;18.50;1.00
19365;DHT22;9818;48.382;10.850;2024-02-23T11:22:04;18.60;1.00
19365;DHT22;9818;48.382;10.850;2024-02-23T11:24:33;18.60;1.00
19365;DHT22;9818;48.382;10.850;2024-02-23T11:27:02;18.60;1.00
19365;DHT22;9818;48.382;10.850;2024-02-23T11:29:36;18.70;73.10
19365;DHT22;9818;48.382;10.850;2024-02-23T11:32:13;18.90;99.90
19365;DHT22;9818;48.382;10.850;2024-02-23T11:34:42;19.00;26.70
19365;DHT22;9818;48.382;10.850;2024-02-23T11:37:11;19.10;93.40
19365;DHT22;9818;48.382;10.850;2024-02-23T11:39:40;19.00;99.90
19365;DHT22;9818;48.382;10.850;2024-02-23T11:42:09;19.10;99.90
19365;DHT22;9818;48.382;10.850;2024-02-23T11:44:40;19.10;99.90
19365;DHT22;9818;48.382;10.850;2024-02-23T11:47:09;19.20;99.90
19365;DHT22;9818;48.382;10.850;2024-02-23T11:49:38;19.20;99.90
19365;DHT22;9818;48.382;10.850;2024-02-23T11:52:07;19.30;1.00
19365;DHT22;9818;48.382;10.850;2024-02-23T11:54:36;19.30;1.00
19365;DHT22;9818;48.382;10.850;2024-02-23T11:57:05;19.30;1.00
19365;DHT22;9818;48.382;10.850;2024-02-23T11:59:33;19.30;1.00
19365;DHT22;9818;48.382;10.850;2024-02-23T12:02:06;19.40;1.00
19365;DHT22;9818;48.382;10.850;2024-02-23T12:04:34;19.40;1.00
19365;DHT22;9818;48.382;10.850;2024-02-23T12:07:04;19.40;1.00
19365;DHT22;9818;48.382;10.850;2024-02-23T12:09:32;19.50;1.00
19365;DHT22;9818;48.382;10.850;2024-02-23T12:12:02;19.50;1.00
19365;DHT22;9818;48.382;10.850;2024-02-23T12:14:30;19.60;1.00
19365;DHT22;9818;48.382;10.850;2024-02-23T12:16:59;19.60;99.90
19365;DHT22;9818;48.382;10.850;2024-02-23T12:19:37;19.60;99.90
19365;DHT22;9818;48.382;10.850;2024-02-23T12:22:07;19.60;99.90
19365;DHT22;9818;48.382;10.850;2024-02-23T12:24:35;19.60;1.00
19365;DHT22;9818;48.382;10.850;2024-02-23T12:27:05;19.60;99.90
19365;DHT22;9818;48.382;10.850;2024-02-23T12:29:33;19.70;99.90
19365;DHT22;9818;48.382;10.850;2024-02-23T12:32:03;19.70;99.90
19365;DHT22;9818;48.382;10.850;2024-02-23T12:34:35;19.70;99.90
19365;DHT22;9818;48.382;10.850;2024-02-23T12:37:04;19.70;99.90
19365;DHT22;9818;48.382;10.850;2024-02-23T12:39:34;19.80;99.90
19365;DHT22;9818;48.382;10.850;2024-02-23T12:42:03;19.80;99.90
19365;DHT22;9818;48.382;10.850;2024-02-23T12:44:31;19.80;99.90
19365;DHT22;9818;48.382;10.850;2024-02-23T12:47:00;19.90;99.90
19365;DHT22;9818;48.382;10.850;2024-02-23T12:49:29;19.90;99.90
19365;DHT22;9818;48.382;10.850;2024-02-23T12:52:01;19.90;99.90
19365;DHT22;9818;48.382;10.850;2024-02-23T12:54:30;19.90;99.90
19365;DHT22;9818;48.382;10.850;2024-02-23T12:56:59;19.90;1.00
19365;DHT22;9818;48.382;10.850;2024-02-23T12:59:27;20.00;1.00
19365;DHT22;9818;48.382;10.850;2024-02-23T13:01:56;20.00;1.00
19365;DHT22;9818;48.382;10.850;2024-02-23T13:04:25;20.00;1.00
19365;DHT22;9818;48.382;10.850;2024-02-23T13:06:54;20.00;1.00
19365;DHT22;9818;48.382;10.850;2024-02-23T13:09:26;20.00;1.00
19365;DHT22;9818;48.382;10.850;2024-02-23T13:11:55;20.10;1.00
19365;DHT22;9818;48.382;10.850;2024-02-23T13:14:24;20.00;1.00
19365;DHT22;9818;48.382;10.850;2024-02-23T13:16:53;20.10;1.00
19365;DHT22;9818;48.382;10.850;2024-02-23T13:19:21;20.10;1.00
19365;DHT22;9818;48.382;10.850;2024-02-23T13:21:50;20.10;1.00
19365;DHT22;9818;48.382;10.850;2024-02-23T13:24:19;20.10;1.00
19365;DHT22;9818;48.382;10.850;2024-02-23T13:26:51;20.10;1.00
19365;DHT22;9818;48.382;10.850;2024-02-23T13:29:19;20.10;1.00
19365;DHT22;9818;48.382;10.850;2024-02-23T13:31:49;20.10;1.00
19365;DHT22;9818;48.382;10.850;2024-02-23T13:34:18;20.20;1.00
19365;DHT22;9818;48.382;10.850;2024-02-23T13:36:47;20.20;1.00
19365;DHT22;9818;48.382;10.850;2024-02-23T13:39:18;20.20;1.00
19365;DHT22;9818;48.382;10.850;2024-02-23T13:41:47;20.20;99.90
19365;DHT22;9818;48.382;10.850;2024-02-23T13:44:18;20.20;99.90
19365;DHT22;9818;48.382;10.850;2024-02-23T13:46:47;20.20;99.90
19365;DHT22;9818;48.382;10.850;2024-02-23T13:49:15;20.20;99.90
19365;DHT22;9818;48.382;10.850;2024-02-23T13:51:44;20.20;99.90
19365;DHT22;9818;48.382;10.850;2024-02-23T13:54:13;20.20;99.90
19365;DHT22;9818;48.382;10.850;2024-02-23T13:56:42;20.20;99.90
19365;DHT22;9818;48.382;10.850;2024-02-23T13:59:11;20.20;99.90
19365;DHT22;9818;48.382;10.850;2024-02-23T14:01:42;20.20;99.90
19365;DHT22;9818;48.382;10.850;2024-02-23T14:04:11;19.70;4.70
19365;DHT22;9818;48.382;10.850;2024-02-23T14:06:40;19.70;1.00
19365;DHT22;9818;48.382;10.850;2024-02-23T14:09:09;20.00;1.00
19365;DHT22;9818;48.382;10.850;2024-02-23T14:11:38;20.10;1.00
19365;DHT22;9818;48.382;10.850;2024-02-23T14:14:08;20.10;1.00
19365;DHT22;9818;48.382;10.850;2024-02-23T14:16:37;20.10;1.00
19365;DHT22;9818;48.382;10.850;2024-02-23T14:19:08;20.10;1.00
19365;DHT22;9818;48.382;10.850;2024-02-23T14:21:37;20.10;1.00
19365;DHT22;9818;48.382;10.850;2024-02-23T14:24:06;20.10;1.00
19365;DHT22;9818;48.382;10.850;2024-02-23T14:26:35;20.10;1.00
19365;DHT22;9818;48.382;10.850;2024-02-23T14:29:04;20.10;1.00
19365;DHT22;9818;48.382;10.850;2024-02-23T14:31:33;20.10;1.00
19365;DHT22;9818;48.382;10.850;2024-02-23T14:34:01;20.10;1.00
19365;DHT22;9818;48.382;10.850;2024-02-23T14:36:33;20.10;1.00
19365;DHT22;9818;48.382;10.850;2024-02-23T14:39:02;20.20;1.00
19365;DHT22;9818;48.382;10.850;2024-02-23T14:41:31;20.10;13.40
19365;DHT22;9818;48.382;10.850;2024-02-23T14:44:00;20.10;20.90
19365;DHT22;9818;48.382;10.850;2024-02-23T14:46:29;20.10;12.90
19365;DHT22;9818;48.382;10.850;2024-02-23T14:48:58;20.20;24.80
19365;DHT22;9818;48.382;10.850;2024-02-23T14:51:27;20.20;33.50
19365;DHT22;9818;48.382;10.850;2024-02-23T14:53:58;20.20;41.80
19365;DHT22;9818;48.382;10.850;2024-02-23T14:56:27;20.20;34.70
19365;DHT22;9818;48.382;10.850;2024-02-23T14:58:57;20.20;32.70
19365;DHT22;9818;48.382;10.850;2024-02-23T15:01:27;20.20;29.00
19365;DHT22;9818;48.382;10.850;2024-02-23T15:03:55;20.20;64.70
19365;DHT22;9818;48.382;10.850;2024-02-23T15:06:24;20.20;40.30
19365;DHT22;9818;48.382;10.850;2024-02-23T15:08:53;20.20;42.40
19365;DHT22;9818;48.382;10.850;2024-02-23T15:11:25;20.20;45.40
19365;DHT22;9818;48.382;10.850;2024-02-23T15:13:55;20.20;44.70
19365;DHT22;9818;48.382;10.850;2024-02-23T15:16:27;20.20;65.60
19365;DHT22;9818;48.382;10.850;2024-02-23T15:18:57;20.20;87.50
19365;DHT22;9818;48.382;10.850;2024-02-23T15:21:26;20.20;84.60
19365;DHT22;9818;48.382;10.850;2024-02-23T15:23:55;20.20;89.50
19365;DHT22;9818;48.382;10.850;2024-02-23T15:26:27;20.20;99.90
19365;DHT22;9818;48.382;10.850;2024-02-23T15:28:56;20.20;99.90
19365;DHT22;9818;48.382;10.850;2024-02-23T15:31:25;20.20;99.90
19365;DHT22;9818;48.382;10.850;2024-02-23T15:33:54;20.20;99.90
19365;DHT22;9818;48.382;10.850;2024-02-23T15:36:23;20.20;99.90
19365;DHT22;9818;48.382;10.850;2024-02-23T15:38:52;20.20;99.90
19365;DHT22;9818;48.382;10.850;2024-02-23T15:41:27;20.20;99.90
19365;DHT22;9818;48.382;10.850;2024-02-23T15:43:57;20.20;99.90
19365;DHT22;9818;48.382;10.850;2024-02-23T15:46:25;20.20;99.90
19365;DHT22;9818;48.382;10.850;2024-02-23T15:48:55;20.20;99.90
19365;DHT22;9818;48.382;10.850;2024-02-23T15:51:24;20.20;99.90
19365;DHT22;9818;48.382;10.850;2024-02-23T15:53:53;20.20;99.90
19365;DHT22;9818;48.382;10.850;2024-02-23T15:56:22;20.20;99.90